• Join FlightAware (Why Join?)
  • Login
  • US Flag 
04:33AM EDT


 

Airport Tracker/Info


-or-


 

Live Flight TrackerFlight Track Log ✈ UPS768 ✈ 19-Jul-2013 ✈ KSDF - KDFW

Flight Track Log - Related Links

Times and Time Zones

All times are in EDT time to prevent confusion due to time zone crossing. See the UPS768 flight status page for this flight to view local times or setup timezone preferences in your user account.

Time Position Orientation Groundspeed Altitude Reporting Facility
EDT Latitude Longitude Course Direction KTS MPH feet Rate Location/Type
04:40AM 38.1660 -85.7390 315° West 21 24  Level FlightAware
04:41AM 38.1670 -85.7410 302° West 29 33 120 Level FlightAware
04:42AM 38.1700 -85.7420 345° North 29 33 120 Level FlightAware
04:42AM 38.1700 -85.7410 90° East 16 18 180 Level FlightAware
04:43AM 38.1750 -85.7430 343° North 20 23 180 Level FlightAware
04:44AM 38.1790 -85.7440 349° North 34 39 180 Level FlightAware
04:44AM 38.1800 -85.7450 322° Northwest 31 36 180 Level FlightAware
04:44AM 38.1830 -85.7460 345° North 31 36 240 Level FlightAware
04:45AM 38.1820 -85.7460 180° South 16 18 240 Level FlightAware
04:47AM 38.1840 -85.7460 360° North 13 15 240 Level FlightAware
04:48AM 38.1850 -85.7460 360° North 15 17 420 Level FlightAware
04:50AM 38.0471 -85.9493 233° Southwest  Level FlightAware Approximate
04:50AM 38.1850 -85.7480 233° Southwest 21 24  Level FlightAware
04:50AM 38.1840 -85.7480 180° South 20 23 1,020 Level FlightAware
04:50AM 38.1830 -85.7480 180° South 43 49 1,140 Level FlightAware
04:51AM 38.1760 -85.7450 161° South 130 150 1,860 Level FlightAware
04:51AM 38.1440 -85.7380 170° South 178 205 1,800 2,400 Climbing FlightAware
04:52AM 38.1170 -85.7410 185° South 233 268 2,700 2,640 Climbing FlightAware
04:52AM 38.0830 -85.7470 188° South 255 293 4,300 3,600 Climbing FlightAware
04:52AM 38.0700 -85.7520 197° South 258 297 5,100 3,720 Climbing FlightAware
04:53AM 38.0580 -85.7610 211° Southwest 266 306 5,800 3,420 Climbing FlightAware
04:53AM 38.0440 -85.7800 227° Southwest 274 315 6,700 3,600 Climbing FlightAware
04:53AM 38.0360 -85.7960 238° Southwest 276 318 7,500 3,780 Climbing FlightAware
04:53AM 38.0200 -85.8330 241° Southwest 284 327 9,100 3,000 Climbing FlightAware
04:54AM 37.9890 -85.9030 241° Southwest 324 373 11,100 2,280 Climbing FlightAware
04:55AM 37.9600 -85.9770 244° Southwest 371 427 12,400 1,620 Climbing FlightAware
04:55AM 37.9440 -86.0180 244° Southwest 391 450 13,100 1,980 Climbing FlightAware
04:56AM 37.9100 -86.1050 244° Southwest 414 476 14,900 3,180 Climbing FlightAware
04:57AM 37.8630 -86.2320 245° Southwest 429 494 17,700 3,180 Climbing FlightAware
04:58AM 37.8220 -86.3340 243° Southwest 444 511 19,600 1,680 Climbing FlightAware
04:58AM 37.7840 -86.4310 244° Southwest 453 521 20,300 2,040 Climbing FlightAware
04:59AM 37.7510 -86.5170 244° Southwest 469 540 22,400 2,820 Climbing FlightAware
05:00AM 37.7120 -86.6160 244° Southwest 479 551 23,800 2,160 Climbing FlightAware
05:00AM 37.6680 -86.7280 244° Southwest 491 565 25,200 1,920 Climbing FlightAware
05:01AM 37.6220 -86.8420 243° Southwest 503 579 26,500 2,040 Climbing FlightAware
05:02AM 37.5810 -86.9460 244° Southwest 502 578 28,100 2,400 Climbing FlightAware
05:02AM 37.5460 -87.0370 244° Southwest 499 574 29,500 2,400 Climbing FlightAware
05:03AM 37.4990 -87.1530 243° Southwest 492 566 31,300 1,680 Climbing FlightAware
05:04AM 37.4600 -87.2500 243° Southwest 490 564 31,900 540 Climbing FlightAware
05:04AM 37.4240 -87.3400 243° Southwest 487 560 32,000 720 Climbing FlightAware
05:05AM 37.3810 -87.4480 243° Southwest 486 559 32,900 1,380 Climbing FlightAware
05:06AM 37.3350 -87.5600 243° Southwest 489 563 34,000 1,560 Climbing FlightAware
05:06AM 37.2950 -87.6600 243° Southwest 488 562 35,100 1,320 Climbing FlightAware
05:07AM 37.2490 -87.7710 243° Southwest 489 563 35,900 600 Climbing FlightAware
05:08AM 37.2110 -87.8650 243° Southwest 496 571 36,000 720 Climbing FlightAware
05:08AM 37.1650 -87.9790 243° Southwest 491 565 36,900 1,140 Climbing FlightAware
05:09AM 37.1140 -88.1020 243° Southwest 488 562 37,800 660 Climbing FlightAware
05:10AM 37.0670 -88.2160 243° Southwest 485 558 38,000 120 Climbing FlightAware
05:11AM 37.0320 -88.3000 242° Southwest 485 558 38,000  Level FlightAware
05:11AM 36.9840 -88.4170 243° Southwest 487 560 38,000  Level FlightAware
05:12AM 36.9390 -88.5250 242° Southwest 481 554 38,000  Level FlightAware
05:13AM 36.8960 -88.6250 242° Southwest 482 555 38,000  Level FlightAware
05:13AM 36.8740 -88.6810 244° Southwest 483 556 38,000  Level FlightAware
05:14AM 36.8220 -88.8020 242° Southwest 482 555 38,000  Level FlightAware
05:15AM 36.7720 -88.9220 243° Southwest 484 557 38,000  Level FlightAware
05:15AM 36.7290 -89.0230 242° Southwest 485 558 38,000  Level FlightAware
05:16AM 36.6860 -89.1250 242° Southwest 485 558 38,000  Level FlightAware
05:17AM 36.6420 -89.2280 242° Southwest 485 558 38,000  Level FlightAware
05:18AM 36.5920 -89.3460 242° Southwest 487 560 38,000  Level FlightAware
05:18AM 36.5550 -89.4320 242° Southwest 487 560 38,000  Level FlightAware
05:19AM 36.5090 -89.5340 241° Southwest 487 560 38,000  Level FlightAware
05:20AM 36.4760 -89.6090 241° Southwest 487 560 38,000 60 Level FlightAware
05:20AM 36.4140 -89.7590 243° Southwest 489 563 38,100 60 Climbing FlightAware
05:21AM 36.3780 -89.8400 241° Southwest 489 563 38,100  Level FlightAware
05:22AM 36.3310 -89.9490 242° Southwest 489 563 38,100 -120 Level FlightAware
05:22AM 36.2850 -90.0560 242° Southwest 490 564 38,000 -120 Descending FlightAware
05:23AM 36.2500 -90.1330 241° Southwest 489 563 38,000  Level FlightAware
05:24AM 36.2170 -90.2080 241° Southwest 489 563 38,000  Level FlightAware
05:24AM 36.1720 -90.3080 241° Southwest 489 563 38,000  Level FlightAware
05:25AM 36.1390 -90.3830 241° Southwest 489 563 38,000  Level FlightAware
05:26AM 36.0740 -90.5340 242° Southwest 492 566 38,000  Level FlightAware
05:26AM 36.0210 -90.6530 241° Southwest 494 568 38,000  Level FlightAware
05:27AM 35.9770 -90.7520 241° Southwest 494 568 38,000  Level FlightAware
05:28AM 35.9220 -90.8740 241° Southwest 495 570 38,000  Level FlightAware
05:29AM 35.8850 -90.9580 241° Southwest 495 570 38,000  Level FlightAware
05:29AM 35.8390 -91.0590 241° Southwest 495 570 38,000  Level FlightAware
05:30AM 35.7770 -91.1950 241° Southwest 497 572 38,000  Level FlightAware
05:31AM 35.7310 -91.2980 241° Southwest 498 573 38,000  Level FlightAware
05:32AM 35.6800 -91.4100 241° Southwest 499 574 38,000  Level FlightAware
05:32AM 35.6420 -91.4910 240° Southwest 499 574 38,000  Level FlightAware
05:33AM 35.5910 -91.6040 241° Southwest 498 573 38,000  Level FlightAware
05:34AM 35.5400 -91.7170 241° Southwest 500 575 38,000  Level FlightAware
05:34AM 35.4920 -91.8200 240° Southwest 501 577 38,000  Level FlightAware
05:35AM 35.4380 -91.9370 240° Southwest 501 577 38,000  Level FlightAware
05:36AM 35.3800 -92.0630 241° Southwest 501 577 38,000  Level FlightAware
05:37AM 35.3230 -92.1850 240° Southwest 501 577 38,000  Level FlightAware
05:37AM 35.2840 -92.2680 240° Southwest 502 578 38,000  Level FlightAware
05:38AM 35.2310 -92.3820 240° Southwest 502 578 38,000  Level FlightAware
05:39AM 35.1880 -92.4730 240° Southwest 502 578 38,000  Level FlightAware
05:39AM 35.1530 -92.5470 240° Southwest 503 579 38,000  Level FlightAware
05:40AM 35.0690 -92.7260 240° Southwest 504 580 38,000  Level FlightAware
05:41AM 35.0120 -92.8450 240° Southwest 504 580 38,000  Level FlightAware
05:42AM 34.9640 -92.9480 240° Southwest 504 580 38,000 60 Level FlightAware
05:43AM 34.9120 -93.0550 239° Southwest 505 581 38,100 60 Climbing FlightAware
05:44AM 34.8580 -93.1680 240° Southwest 505 581 38,100 -120 Level FlightAware
05:44AM 34.8050 -93.2780 240° Southwest 508 585 38,000  Descending FlightAware
05:45AM 34.7550 -93.3830 240° Southwest 508 585 38,100 60 Climbing FlightAware
05:46AM 34.7060 -93.4850 240° Southwest 508 585 38,100 -120 Level FlightAware
05:46AM 34.6450 -93.6100 239° Southwest 505 581 38,000 -120 Descending FlightAware
05:47AM 34.6040 -93.6930 239° Southwest 505 581 38,000  Level FlightAware
05:48AM 34.5560 -93.7910 239° Southwest 502 578 38,000  Level FlightAware
05:48AM 34.5200 -93.8650 239° Southwest 502 578 38,000  Level FlightAware
05:49AM 34.4740 -93.9600 240° Southwest 498 573 38,000  Level FlightAware
05:50AM 34.4360 -94.0350 238° Southwest 498 573 38,000  Level FlightAware
05:51AM 34.3550 -94.2020 240° Southwest 494 568 38,000  Level FlightAware
05:51AM 34.2890 -94.3340 239° Southwest 495 570 38,000 60 Level FlightAware
05:52AM 34.2380 -94.4390 240° Southwest 495 570 38,100 60 Climbing FlightAware
05:53AM 34.1950 -94.5240 239° Southwest 496 571 38,100  Level FlightAware
05:53AM 34.1480 -94.6190 239° Southwest 496 571 38,100  Level FlightAware
05:54AM 34.1000 -94.7140 239° Southwest 496 571 38,100  Level FlightAware
05:55AM 34.0530 -94.8080 239° Southwest 493 567 38,100 -120 Level FlightAware
05:55AM 34.0090 -94.9050 241° Southwest 487 560 38,000 -1,320 Descending FlightAware
05:56AM 33.9670 -95.0010 242° Southwest 485 558 36,400 -2,820 Descending FlightAware
05:57AM 33.9260 -95.0950 242° Southwest 493 567 34,300 -3,000 Descending FlightAware
05:58AM 33.8780 -95.2040 242° Southwest 492 566 32,200 -1,980 Descending FlightAware
05:58AM 33.8300 -95.3130 242° Southwest 496 571 31,200 -1,800 Descending FlightAware
05:59AM 33.7630 -95.4660 242° Southwest 483 556 28,800 -3,240 Descending FlightAware
06:00AM 33.7200 -95.5610 241° Southwest 508 585 26,000 -3,780 Descending FlightAware
06:01AM 33.6750 -95.6610 242° Southwest 510 587 24,200 -2,580 Descending FlightAware
06:01AM 33.6280 -95.7680 242° Southwest 489 563 22,400 -2,460 Descending FlightAware
06:02AM 33.5950 -95.8410 242° Southwest 492 566 21,100 -2,040 Descending FlightAware
06:03AM 33.5660 -95.9050 241° Southwest 484 557 19,900 -2,700 Descending FlightAware
06:03AM 33.5030 -96.0460 242° Southwest 463 533 17,300 -3,060 Descending FlightAware
06:04AM 33.4600 -96.1390 241° Southwest 452 520 15,600 -2,460 Descending FlightAware
06:05AM 33.4310 -96.2040 242° Southwest 446 513 14,400 -2,460 Descending FlightAware
06:05AM 33.3880 -96.2980 241° Southwest 431 496 12,600 -2,220 Descending FlightAware
06:06AM 33.3520 -96.3780 242° Southwest 412 474 11,400 -1,260 Descending FlightAware
06:07AM 33.3210 -96.4470 242° Southwest 378 435 10,900 -480 Descending FlightAware
06:07AM 33.2890 -96.5180 242° Southwest 330 380 10,800 -480 Descending FlightAware
06:08AM 33.2590 -96.5820 241° Southwest 302 348 10,300 -1,020 Descending FlightAware
06:08AM 33.2420 -96.6190 241° Southwest 298 343 9,700 -1,440 Descending FlightAware
06:09AM 33.2250 -96.6560 241° Southwest 295 339 9,100 -1,500 Descending FlightAware
06:09AM 33.2060 -96.6970 241° Southwest 291 335 8,400 -1,440 Descending FlightAware
06:10AM 33.1910 -96.7290 241° Southwest 286 329 7,900 -1,320 Descending FlightAware
06:10AM 33.1730 -96.7680 241° Southwest 283 326 7,300 -1,380 Descending FlightAware
06:11AM 33.1540 -96.8090 241° Southwest 279 321 6,600 -1,380 Descending FlightAware
06:11AM 33.1370 -96.8480 243° Southwest 272 313 6,000 -960 Descending FlightAware
06:12AM 33.1210 -96.8820 241° Southwest 256 295 5,700 -780 Descending FlightAware
06:12AM 33.1040 -96.9150 238° Southwest 237 273 5,300 -960 Descending FlightAware
06:12AM 33.0980 -96.9290 243° Southwest 229 264 5,100 -1,200 Descending FlightAware
06:13AM 33.0850 -96.9600 243° Southwest 221 254 4,500 -1,380 Descending FlightAware
06:13AM 33.0770 -96.9780 242° Southwest 218 251 4,100 -960 Descending FlightAware
06:13AM 33.0710 -96.9890 237° Southwest 204 235 3,900 -960 Descending FlightAware
06:14AM 33.0590 -97.0130 239° Southwest 186 214 3,300 -1,320 Descending FlightAware
06:14AM 33.0440 -97.0330 228° Southwest 192 221 2,700 -960 Descending FlightAware
06:15AM 33.0270 -97.0480 216° Southwest 182 209 2,500 -720 Descending FlightAware
06:15AM 33.0140 -97.0520 194° South 161 185 2,200 -1,020 Descending FlightAware
06:15AM 33.0050 -97.0540 191° South 156 180 2,000 -840 Descending FlightAware
06:16AM 32.9670 -97.0540 180° South 150 173 1,500 -480 Descending FlightAware
06:16AM 32.9450 -97.0550 182° South 147 169 1,400 -540 Descending FlightAware
06:18AM 32.8975 -97.0619 182° South 144 166 600 -660 Descending Fort Worth Center